sensor_id;sensor_type;location;lat;lon;timestamp;P1;durP1;ratioP1;P2;durP2;ratioP2
31638;SDS011;18248;51.522;7.020;2023-12-04T00:00:17;25.38;;;13.25;;
31638;SDS011;18248;51.522;7.020;2023-12-04T00:03:15;23.67;;;12.68;;
31638;SDS011;18248;51.522;7.020;2023-12-04T00:06:14;25.58;;;13.40;;
31638;SDS011;18248;51.522;7.020;2023-12-04T00:09:12;32.22;;;14.13;;
31638;SDS011;18248;51.522;7.020;2023-12-04T00:12:11;24.75;;;13.05;;
31638;SDS011;18248;51.522;7.020;2023-12-04T00:15:10;22.30;;;12.48;;
31638;SDS011;18248;51.522;7.020;2023-12-04T00:18:08;24.58;;;13.45;;
31638;SDS011;18248;51.522;7.020;2023-12-04T00:21:07;21.05;;;12.05;;
31638;SDS011;18248;51.522;7.020;2023-12-04T00:24:06;26.95;;;14.32;;
31638;SDS011;18248;51.522;7.020;2023-12-04T00:27:04;26.75;;;13.63;;
31638;SDS011;18248;51.522;7.020;2023-12-04T00:30:03;26.63;;;13.55;;
31638;SDS011;18248;51.522;7.020;2023-12-04T00:33:02;29.00;;;14.10;;
31638;SDS011;18248;51.522;7.020;2023-12-04T00:36:01;24.45;;;12.23;;
31638;SDS011;18248;51.522;7.020;2023-12-04T00:38:59;20.95;;;11.73;;
31638;SDS011;18248;51.522;7.020;2023-12-04T00:41:58;25.30;;;13.43;;
31638;SDS011;18248;51.522;7.020;2023-12-04T00:44:56;25.02;;;13.45;;
31638;SDS011;18248;51.522;7.020;2023-12-04T00:47:55;25.83;;;13.35;;
31638;SDS011;18248;51.522;7.020;2023-12-04T00:50:54;25.02;;;12.82;;
31638;SDS011;18248;51.522;7.020;2023-12-04T00:53:52;22.85;;;12.30;;
31638;SDS011;18248;51.522;7.020;2023-12-04T00:56:51;24.95;;;13.45;;
31638;SDS011;18248;51.522;7.020;2023-12-04T00:59:50;21.75;;;12.32;;
31638;SDS011;18248;51.522;7.020;2023-12-04T01:02:49;27.58;;;13.10;;
31638;SDS011;18248;51.522;7.020;2023-12-04T01:05:47;21.35;;;11.20;;
31638;SDS011;18248;51.522;7.020;2023-12-04T01:08:46;23.58;;;12.40;;
31638;SDS011;18248;51.522;7.020;2023-12-04T01:11:45;23.85;;;12.70;;
31638;SDS011;18248;51.522;7.020;2023-12-04T01:14:43;18.90;;;10.90;;
31638;SDS011;18248;51.522;7.020;2023-12-04T01:17:42;24.73;;;12.50;;
31638;SDS011;18248;51.522;7.020;2023-12-04T01:20:41;25.50;;;12.45;;
31638;SDS011;18248;51.522;7.020;2023-12-04T01:23:39;22.23;;;12.25;;
31638;SDS011;18248;51.522;7.020;2023-12-04T01:26:38;20.75;;;10.65;;
31638;SDS011;18248;51.522;7.020;2023-12-04T01:29:36;20.17;;;10.45;;
31638;SDS011;18248;51.522;7.020;2023-12-04T01:32:35;24.27;;;12.07;;
31638;SDS011;18248;51.522;7.020;2023-12-04T01:35:33;23.73;;;12.48;;
31638;SDS011;18248;51.522;7.020;2023-12-04T01:38:32;17.85;;;10.52;;
31638;SDS011;18248;51.522;7.020;2023-12-04T01:41:30;18.38;;;10.60;;
31638;SDS011;18248;51.522;7.020;2023-12-04T01:44:29;20.75;;;10.95;;
31638;SDS011;18248;51.522;7.020;2023-12-04T01:47:27;19.30;;;10.35;;
31638;SDS011;18248;51.522;7.020;2023-12-04T01:50:26;23.15;;;10.85;;
31638;SDS011;18248;51.522;7.020;2023-12-04T01:53:25;20.00;;;10.70;;
31638;SDS011;18248;51.522;7.020;2023-12-04T01:56:24;16.60;;;9.50;;
31638;SDS011;18248;51.522;7.020;2023-12-04T01:59:22;17.27;;;10.32;;
31638;SDS011;18248;51.522;7.020;2023-12-04T02:02:22;15.07;;;7.82;;
31638;SDS011;18248;51.522;7.020;2023-12-04T02:05:20;20.75;;;9.05;;
31638;SDS011;18248;51.522;7.020;2023-12-04T02:08:20;18.98;;;9.93;;
31638;SDS011;18248;51.522;7.020;2023-12-04T02:11:19;20.27;;;10.50;;
31638;SDS011;18248;51.522;7.020;2023-12-04T02:14:17;20.67;;;10.00;;
31638;SDS011;18248;51.522;7.020;2023-12-04T02:17:16;18.38;;;10.20;;
31638;SDS011;18248;51.522;7.020;2023-12-04T02:20:15;15.93;;;8.70;;
31638;SDS011;18248;51.522;7.020;2023-12-04T02:23:15;17.33;;;9.02;;
31638;SDS011;18248;51.522;7.020;2023-12-04T02:26:14;19.40;;;9.77;;
31638;SDS011;18248;51.522;7.020;2023-12-04T02:29:19;13.50;;;7.43;;
31638;SDS011;18248;51.522;7.020;2023-12-04T02:32:22;21.17;;;10.20;;
31638;SDS011;18248;51.522;7.020;2023-12-04T02:35:23;15.50;;;8.90;;
31638;SDS011;18248;51.522;7.020;2023-12-04T02:38:25;18.55;;;9.23;;
31638;SDS011;18248;51.522;7.020;2023-12-04T02:41:24;16.33;;;9.07;;
31638;SDS011;18248;51.522;7.020;2023-12-04T02:44:22;16.02;;;9.43;;
31638;SDS011;18248;51.522;7.020;2023-12-04T02:47:21;13.82;;;7.60;;
31638;SDS011;18248;51.522;7.020;2023-12-04T02:50:20;15.55;;;8.80;;
31638;SDS011;18248;51.522;7.020;2023-12-04T02:53:18;15.40;;;8.35;;
31638;SDS011;18248;51.522;7.020;2023-12-04T02:56:17;16.20;;;9.05;;
31638;SDS011;18248;51.522;7.020;2023-12-04T02:59:15;13.25;;;8.02;;
31638;SDS011;18248;51.522;7.020;2023-12-04T03:02:14;16.30;;;9.27;;
31638;SDS011;18248;51.522;7.020;2023-12-04T03:05:12;13.70;;;8.20;;
31638;SDS011;18248;51.522;7.020;2023-12-04T03:08:11;13.70;;;7.63;;
31638;SDS011;18248;51.522;7.020;2023-12-04T03:11:09;14.90;;;8.20;;
31638;SDS011;18248;51.522;7.020;2023-12-04T03:14:08;14.00;;;7.35;;
31638;SDS011;18248;51.522;7.020;2023-12-04T03:17:07;12.80;;;7.53;;
31638;SDS011;18248;51.522;7.020;2023-12-04T03:20:05;15.45;;;8.73;;
31638;SDS011;18248;51.522;7.020;2023-12-04T03:23:06;13.10;;;7.85;;
31638;SDS011;18248;51.522;7.020;2023-12-04T03:26:05;14.63;;;7.70;;
31638;SDS011;18248;51.522;7.020;2023-12-04T03:29:03;11.52;;;6.70;;
31638;SDS011;18248;51.522;7.020;2023-12-04T03:32:02;13.20;;;7.55;;
31638;SDS011;18248;51.522;7.020;2023-12-04T03:35:01;13.45;;;7.57;;
31638;SDS011;18248;51.522;7.020;2023-12-04T03:37:59;14.45;;;7.60;;
31638;SDS011;18248;51.522;7.020;2023-12-04T03:40:58;9.70;;;6.32;;
31638;SDS011;18248;51.522;7.020;2023-12-04T03:43:56;11.82;;;7.07;;
31638;SDS011;18248;51.522;7.020;2023-12-04T03:46:55;10.27;;;6.32;;
31638;SDS011;18248;51.522;7.020;2023-12-04T03:49:53;12.15;;;6.85;;
31638;SDS011;18248;51.522;7.020;2023-12-04T03:52:52;16.60;;;8.10;;
31638;SDS011;18248;51.522;7.020;2023-12-04T03:55:51;16.08;;;7.90;;
31638;SDS011;18248;51.522;7.020;2023-12-04T03:58:49;11.30;;;6.15;;
31638;SDS011;18248;51.522;7.020;2023-12-04T04:01:48;13.30;;;6.70;;
31638;SDS011;18248;51.522;7.020;2023-12-04T04:04:46;11.38;;;6.47;;
31638;SDS011;18248;51.522;7.020;2023-12-04T04:07:45;11.93;;;6.35;;
31638;SDS011;18248;51.522;7.020;2023-12-04T04:10:43;12.45;;;6.90;;
31638;SDS011;18248;51.522;7.020;2023-12-04T04:13:43;10.18;;;6.18;;
31638;SDS011;18248;51.522;7.020;2023-12-04T04:16:41;9.57;;;5.53;;
31638;SDS011;18248;51.522;7.020;2023-12-04T04:19:40;13.23;;;7.15;;
31638;SDS011;18248;51.522;7.020;2023-12-04T04:22:39;11.25;;;6.35;;
31638;SDS011;18248;51.522;7.020;2023-12-04T04:25:38;11.45;;;6.30;;
31638;SDS011;18248;51.522;7.020;2023-12-04T04:28:37;9.95;;;6.15;;
31638;SDS011;18248;51.522;7.020;2023-12-04T04:31:35;10.40;;;5.75;;
31638;SDS011;18248;51.522;7.020;2023-12-04T04:34:34;9.85;;;5.75;;
31638;SDS011;18248;51.522;7.020;2023-12-04T04:37:33;9.88;;;6.07;;
31638;SDS011;18248;51.522;7.020;2023-12-04T04:40:31;8.52;;;5.10;;
31638;SDS011;18248;51.522;7.020;2023-12-04T04:43:30;11.88;;;5.90;;
31638;SDS011;18248;51.522;7.020;2023-12-04T04:46:28;8.85;;;5.10;;
31638;SDS011;18248;51.522;7.020;2023-12-04T04:49:27;10.07;;;5.13;;
31638;SDS011;18248;51.522;7.020;2023-12-04T04:52:25;9.32;;;5.47;;
31638;SDS011;18248;51.522;7.020;2023-12-04T04:55:24;9.68;;;5.63;;
31638;SDS011;18248;51.522;7.020;2023-12-04T04:58:22;7.97;;;4.32;;
31638;SDS011;18248;51.522;7.020;2023-12-04T05:01:21;8.63;;;4.95;;
31638;SDS011;18248;51.522;7.020;2023-12-04T05:04:20;8.55;;;4.75;;
31638;SDS011;18248;51.522;7.020;2023-12-04T05:07:18;8.80;;;4.95;;
31638;SDS011;18248;51.522;7.020;2023-12-04T05:10:17;9.40;;;4.47;;
31638;SDS011;18248;51.522;7.020;2023-12-04T05:13:16;7.80;;;4.63;;
31638;SDS011;18248;51.522;7.020;2023-12-04T05:16:14;9.80;;;5.47;;
31638;SDS011;18248;51.522;7.020;2023-12-04T05:19:13;9.10;;;5.32;;
31638;SDS011;18248;51.522;7.020;2023-12-04T05:22:11;9.23;;;5.13;;
31638;SDS011;18248;51.522;7.020;2023-12-04T05:25:10;8.45;;;4.93;;
31638;SDS011;18248;51.522;7.020;2023-12-04T05:28:08;9.68;;;5.28;;
31638;SDS011;18248;51.522;7.020;2023-12-04T05:31:07;9.98;;;5.05;;
31638;SDS011;18248;51.522;7.020;2023-12-04T05:34:05;8.40;;;4.90;;
31638;SDS011;18248;51.522;7.020;2023-12-04T05:37:04;8.18;;;5.00;;
31638;SDS011;18248;51.522;7.020;2023-12-04T05:40:02;11.02;;;5.00;;
31638;SDS011;18248;51.522;7.020;2023-12-04T05:43:02;11.07;;;5.78;;
31638;SDS011;18248;51.522;7.020;2023-12-04T05:46:01;13.27;;;6.13;;
31638;SDS011;18248;51.522;7.020;2023-12-04T05:49:00;8.73;;;5.00;;
31638;SDS011;18248;51.522;7.020;2023-12-04T05:51:58;11.07;;;6.28;;
31638;SDS011;18248;51.522;7.020;2023-12-04T05:54:57;11.90;;;5.30;;
31638;SDS011;18248;51.522;7.020;2023-12-04T05:57:55;14.85;;;7.25;;
31638;SDS011;18248;51.522;7.020;2023-12-04T06:00:54;14.60;;;7.00;;
31638;SDS011;18248;51.522;7.020;2023-12-04T06:03:52;12.52;;;7.20;;
31638;SDS011;18248;51.522;7.020;2023-12-04T06:06:51;12.80;;;6.85;;
31638;SDS011;18248;51.522;7.020;2023-12-04T06:09:49;13.40;;;7.43;;
31638;SDS011;18248;51.522;7.020;2023-12-04T06:12:48;15.30;;;7.00;;
31638;SDS011;18248;51.522;7.020;2023-12-04T06:15:46;16.63;;;8.20;;
31638;SDS011;18248;51.522;7.020;2023-12-04T06:18:45;12.93;;;7.25;;
31638;SDS011;18248;51.522;7.020;2023-12-04T06:21:43;11.57;;;6.75;;
31638;SDS011;18248;51.522;7.020;2023-12-04T06:24:42;13.55;;;7.57;;
31638;SDS011;18248;51.522;7.020;2023-12-04T06:27:41;12.85;;;6.95;;
31638;SDS011;18248;51.522;7.020;2023-12-04T06:30:40;11.68;;;7.07;;
31638;SDS011;18248;51.522;7.020;2023-12-04T06:33:39;10.52;;;6.97;;
31638;SDS011;18248;51.522;7.020;2023-12-04T06:36:38;10.40;;;6.57;;
31638;SDS011;18248;51.522;7.020;2023-12-04T06:39:39;11.77;;;6.43;;
31638;SDS011;18248;51.522;7.020;2023-12-04T06:42:38;14.35;;;7.43;;
31638;SDS011;18248;51.522;7.020;2023-12-04T06:45:37;14.43;;;7.10;;
31638;SDS011;18248;51.522;7.020;2023-12-04T06:48:35;11.13;;;6.50;;
31638;SDS011;18248;51.522;7.020;2023-12-04T06:51:34;12.40;;;6.80;;
31638;SDS011;18248;51.522;7.020;2023-12-04T06:54:33;14.63;;;6.60;;
31638;SDS011;18248;51.522;7.020;2023-12-04T06:57:31;13.07;;;6.78;;
31638;SDS011;18248;51.522;7.020;2023-12-04T07:00:30;9.05;;;5.57;;
31638;SDS011;18248;51.522;7.020;2023-12-04T07:03:29;12.90;;;7.55;;
31638;SDS011;18248;51.522;7.020;2023-12-04T07:06:27;11.90;;;6.70;;
31638;SDS011;18248;51.522;7.020;2023-12-04T07:09:26;13.35;;;6.68;;
31638;SDS011;18248;51.522;7.020;2023-12-04T07:12:25;13.25;;;6.65;;
31638;SDS011;18248;51.522;7.020;2023-12-04T07:15:23;10.55;;;6.18;;
31638;SDS011;18248;51.522;7.020;2023-12-04T07:18:22;10.75;;;6.30;;
31638;SDS011;18248;51.522;7.020;2023-12-04T07:21:21;9.98;;;5.68;;
31638;SDS011;18248;51.522;7.020;2023-12-04T07:24:19;10.63;;;5.82;;
31638;SDS011;18248;51.522;7.020;2023-12-04T07:27:18;12.27;;;5.85;;
31638;SDS011;18248;51.522;7.020;2023-12-04T07:30:16;11.60;;;6.55;;
31638;SDS011;18248;51.522;7.020;2023-12-04T07:33:15;9.90;;;5.65;;
31638;SDS011;18248;51.522;7.020;2023-12-04T07:36:13;9.90;;;5.30;;
31638;SDS011;18248;51.522;7.020;2023-12-04T07:39:12;12.13;;;7.05;;
31638;SDS011;18248;51.522;7.020;2023-12-04T07:42:11;14.07;;;6.78;;
31638;SDS011;18248;51.522;7.020;2023-12-04T07:45:10;9.95;;;5.28;;
31638;SDS011;18248;51.522;7.020;2023-12-04T07:48:08;10.77;;;6.53;;
31638;SDS011;18248;51.522;7.020;2023-12-04T07:51:07;10.45;;;6.00;;
31638;SDS011;18248;51.522;7.020;2023-12-04T07:54:06;10.73;;;6.20;;
31638;SDS011;18248;51.522;7.020;2023-12-04T07:57:05;10.73;;;6.07;;
31638;SDS011;18248;51.522;7.020;2023-12-04T08:00:04;10.73;;;5.43;;
31638;SDS011;18248;51.522;7.020;2023-12-04T08:03:03;8.25;;;4.88;;
31638;SDS011;18248;51.522;7.020;2023-12-04T08:06:02;10.13;;;5.45;;
31638;SDS011;18248;51.522;7.020;2023-12-04T08:09:01;10.18;;;6.00;;
31638;SDS011;18248;51.522;7.020;2023-12-04T08:12:00;9.82;;;5.57;;
31638;SDS011;18248;51.522;7.020;2023-12-04T08:14:59;9.77;;;5.35;;
31638;SDS011;18248;51.522;7.020;2023-12-04T08:17:57;10.50;;;6.10;;
31638;SDS011;18248;51.522;7.020;2023-12-04T08:20:59;10.23;;;5.32;;
31638;SDS011;18248;51.522;7.020;2023-12-04T08:23:58;11.13;;;4.80;;
31638;SDS011;18248;51.522;7.020;2023-12-04T08:26:57;8.90;;;5.30;;
31638;SDS011;18248;51.522;7.020;2023-12-04T08:29:55;12.90;;;6.35;;
31638;SDS011;18248;51.522;7.020;2023-12-04T08:32:54;14.55;;;5.78;;
31638;SDS011;18248;51.522;7.020;2023-12-04T08:35:52;10.25;;;6.03;;
31638;SDS011;18248;51.522;7.020;2023-12-04T08:38:51;12.70;;;6.05;;
31638;SDS011;18248;51.522;7.020;2023-12-04T08:41:49;14.60;;;6.25;;
31638;SDS011;18248;51.522;7.020;2023-12-04T08:44:48;9.88;;;4.97;;
31638;SDS011;18248;51.522;7.020;2023-12-04T08:47:46;8.18;;;4.45;;
31638;SDS011;18248;51.522;7.020;2023-12-04T08:50:45;9.68;;;5.30;;
31638;SDS011;18248;51.522;7.020;2023-12-04T08:53:44;11.45;;;5.13;;
31638;SDS011;18248;51.522;7.020;2023-12-04T08:56:42;8.88;;;5.25;;
31638;SDS011;18248;51.522;7.020;2023-12-04T08:59:42;10.35;;;4.80;;
31638;SDS011;18248;51.522;7.020;2023-12-04T09:02:40;15.05;;;5.97;;
31638;SDS011;18248;51.522;7.020;2023-12-04T09:05:39;10.15;;;5.03;;
31638;SDS011;18248;51.522;7.020;2023-12-04T09:08:38;11.43;;;5.47;;
31638;SDS011;18248;51.522;7.020;2023-12-04T09:11:40;8.75;;;5.15;;
31638;SDS011;18248;51.522;7.020;2023-12-04T09:14:42;9.20;;;5.45;;
31638;SDS011;18248;51.522;7.020;2023-12-04T09:17:40;12.32;;;4.95;;
31638;SDS011;18248;51.522;7.020;2023-12-04T09:20:39;12.57;;;4.95;;
31638;SDS011;18248;51.522;7.020;2023-12-04T09:23:37;12.40;;;6.05;;
31638;SDS011;18248;51.522;7.020;2023-12-04T09:26:36;14.32;;;5.38;;
31638;SDS011;18248;51.522;7.020;2023-12-04T09:29:34;11.32;;;5.15;;
31638;SDS011;18248;51.522;7.020;2023-12-04T09:32:33;9.55;;;4.90;;
31638;SDS011;18248;51.522;7.020;2023-12-04T09:35:31;9.85;;;5.10;;
31638;SDS011;18248;51.522;7.020;2023-12-04T09:38:30;8.80;;;4.72;;
31638;SDS011;18248;51.522;7.020;2023-12-04T09:41:29;8.50;;;4.25;;
31638;SDS011;18248;51.522;7.020;2023-12-04T09:44:28;11.02;;;4.40;;
31638;SDS011;18248;51.522;7.020;2023-12-04T09:47:28;11.48;;;5.13;;
31638;SDS011;18248;51.522;7.020;2023-12-04T09:50:28;8.57;;;4.90;;
31638;SDS011;18248;51.522;7.020;2023-12-04T09:53:27;8.02;;;4.05;;
31638;SDS011;18248;51.522;7.020;2023-12-04T09:56:28;7.43;;;4.15;;
31638;SDS011;18248;51.522;7.020;2023-12-04T09:59:27;6.90;;;3.78;;
31638;SDS011;18248;51.522;7.020;2023-12-04T10:02:28;6.50;;;3.67;;
31638;SDS011;18248;51.522;7.020;2023-12-04T10:05:27;8.40;;;3.90;;
31638;SDS011;18248;51.522;7.020;2023-12-04T10:08:25;8.32;;;4.05;;
31638;SDS011;18248;51.522;7.020;2023-12-04T10:11:24;9.55;;;4.57;;
31638;SDS011;18248;51.522;7.020;2023-12-04T10:14:24;7.28;;;4.28;;
31638;SDS011;18248;51.522;7.020;2023-12-04T10:17:23;11.40;;;3.95;;
31638;SDS011;18248;51.522;7.020;2023-12-04T10:20:22;7.35;;;4.05;;
31638;SDS011;18248;51.522;7.020;2023-12-04T10:23:22;5.97;;;3.63;;
31638;SDS011;18248;51.522;7.020;2023-12-04T10:26:34;6.97;;;4.00;;
31638;SDS011;18248;51.522;7.020;2023-12-04T10:29:46;8.70;;;4.22;;
31638;SDS011;18248;51.522;7.020;2023-12-04T10:32:45;10.77;;;4.53;;
31638;SDS011;18248;51.522;7.020;2023-12-04T10:35:43;6.85;;;3.80;;
31638;SDS011;18248;51.522;7.020;2023-12-04T10:38:45;9.95;;;4.22;;
31638;SDS011;18248;51.522;7.020;2023-12-04T10:41:43;7.47;;;4.18;;
31638;SDS011;18248;51.522;7.020;2023-12-04T10:44:42;7.00;;;4.25;;
31638;SDS011;18248;51.522;7.020;2023-12-04T10:47:41;10.30;;;5.68;;
31638;SDS011;18248;51.522;7.020;2023-12-04T10:50:42;7.55;;;4.43;;
31638;SDS011;18248;51.522;7.020;2023-12-04T10:53:42;11.63;;;5.40;;
31638;SDS011;18248;51.522;7.020;2023-12-04T10:56:41;10.07;;;5.55;;
31638;SDS011;18248;51.522;7.020;2023-12-04T10:59:45;17.27;;;5.68;;
31638;SDS011;18248;51.522;7.020;2023-12-04T11:02:45;10.05;;;5.13;;
31638;SDS011;18248;51.522;7.020;2023-12-04T11:05:46;8.38;;;5.35;;
31638;SDS011;18248;51.522;7.020;2023-12-04T11:08:50;14.68;;;5.75;;
31638;SDS011;18248;51.522;7.020;2023-12-04T11:11:55;13.77;;;6.07;;
31638;SDS011;18248;51.522;7.020;2023-12-04T11:14:59;13.07;;;6.45;;
31638;SDS011;18248;51.522;7.020;2023-12-04T11:18:01;11.60;;;6.10;;
31638;SDS011;18248;51.522;7.020;2023-12-04T11:21:04;12.38;;;6.07;;
31638;SDS011;18248;51.522;7.020;2023-12-04T11:24:08;11.05;;;5.90;;
31638;SDS011;18248;51.522;7.020;2023-12-04T11:27:07;12.80;;;6.32;;
31638;SDS011;18248;51.522;7.020;2023-12-04T11:30:06;14.70;;;6.35;;
31638;SDS011;18248;51.522;7.020;2023-12-04T11:33:05;13.75;;;6.30;;
31638;SDS011;18248;51.522;7.020;2023-12-04T11:36:13;11.20;;;5.72;;
31638;SDS011;18248;51.522;7.020;2023-12-04T11:39:13;11.32;;;6.63;;
31638;SDS011;18248;51.522;7.020;2023-12-04T11:42:12;10.15;;;6.03;;
31638;SDS011;18248;51.522;7.020;2023-12-04T11:45:17;11.98;;;7.28;;
31638;SDS011;18248;51.522;7.020;2023-12-04T11:48:22;12.93;;;6.95;;
31638;SDS011;18248;51.522;7.020;2023-12-04T11:54:56;15.43;;;7.80;;
31638;SDS011;18248;51.522;7.020;2023-12-04T11:58:01;14.63;;;7.07;;
31638;SDS011;18248;51.522;7.020;2023-12-04T12:01:10;14.50;;;7.30;;
31638;SDS011;18248;51.522;7.020;2023-12-04T12:04:10;15.07;;;7.72;;
31638;SDS011;18248;51.522;7.020;2023-12-04T12:07:09;13.65;;;7.60;;
31638;SDS011;18248;51.522;7.020;2023-12-04T12:10:12;12.30;;;7.50;;
31638;SDS011;18248;51.522;7.020;2023-12-04T12:13:11;15.15;;;7.47;;
31638;SDS011;18248;51.522;7.020;2023-12-04T12:16:10;12.52;;;7.07;;
31638;SDS011;18248;51.522;7.020;2023-12-04T12:19:09;12.23;;;7.00;;
31638;SDS011;18248;51.522;7.020;2023-12-04T12:22:08;20.23;;;7.78;;
31638;SDS011;18248;51.522;7.020;2023-12-04T12:25:07;14.73;;;7.72;;
31638;SDS011;18248;51.522;7.020;2023-12-04T12:28:06;14.88;;;7.85;;
31638;SDS011;18248;51.522;7.020;2023-12-04T12:31:05;12.07;;;7.38;;
31638;SDS011;18248;51.522;7.020;2023-12-04T12:34:04;13.57;;;7.43;;
31638;SDS011;18248;51.522;7.020;2023-12-04T12:37:03;16.17;;;8.23;;
31638;SDS011;18248;51.522;7.020;2023-12-04T12:40:03;12.23;;;7.95;;
31638;SDS011;18248;51.522;7.020;2023-12-04T12:43:06;16.00;;;8.07;;
31638;SDS011;18248;51.522;7.020;2023-12-04T12:46:06;13.97;;;7.43;;
31638;SDS011;18248;51.522;7.020;2023-12-04T12:49:04;15.10;;;7.95;;
31638;SDS011;18248;51.522;7.020;2023-12-04T12:52:06;16.10;;;8.73;;
31638;SDS011;18248;51.522;7.020;2023-12-04T12:55:06;11.80;;;6.75;;
31638;SDS011;18248;51.522;7.020;2023-12-04T12:58:05;14.35;;;8.45;;
31638;SDS011;18248;51.522;7.020;2023-12-04T13:01:03;13.70;;;8.27;;
31638;SDS011;18248;51.522;7.020;2023-12-04T13:04:02;14.50;;;7.38;;
31638;SDS011;18248;51.522;7.020;2023-12-04T13:07:02;14.52;;;8.10;;
31638;SDS011;18248;51.522;7.020;2023-12-04T13:10:01;16.35;;;7.47;;
31638;SDS011;18248;51.522;7.020;2023-12-04T13:13:03;14.35;;;8.43;;
31638;SDS011;18248;51.522;7.020;2023-12-04T13:16:01;18.65;;;8.77;;
31638;SDS011;18248;51.522;7.020;2023-12-04T13:19:00;16.27;;;8.43;;
31638;SDS011;18248;51.522;7.020;2023-12-04T13:22:00;16.25;;;9.30;;
31638;SDS011;18248;51.522;7.020;2023-12-04T13:24:59;14.27;;;8.70;;
31638;SDS011;18248;51.522;7.020;2023-12-04T13:27:58;14.15;;;8.02;;
31638;SDS011;18248;51.522;7.020;2023-12-04T13:30:57;15.80;;;8.50;;
31638;SDS011;18248;51.522;7.020;2023-12-04T13:33:55;12.85;;;8.25;;
31638;SDS011;18248;51.522;7.020;2023-12-04T13:36:54;14.27;;;8.43;;
31638;SDS011;18248;51.522;7.020;2023-12-04T13:39:54;15.93;;;8.73;;
31638;SDS011;18248;51.522;7.020;2023-12-04T13:42:56;14.93;;;7.72;;
31638;SDS011;18248;51.522;7.020;2023-12-04T13:46:13;20.55;;;9.90;;
31638;SDS011;18248;51.522;7.020;2023-12-04T13:49:11;16.00;;;8.88;;
31638;SDS011;18248;51.522;7.020;2023-12-04T13:52:10;13.68;;;8.23;;
31638;SDS011;18248;51.522;7.020;2023-12-04T13:55:09;12.20;;;7.22;;
31638;SDS011;18248;51.522;7.020;2023-12-04T13:58:34;12.23;;;7.25;;
31638;SDS011;18248;51.522;7.020;2023-12-04T14:01:35;16.77;;;7.68;;
31638;SDS011;18248;51.522;7.020;2023-12-04T14:04:40;15.60;;;6.60;;
31638;SDS011;18248;51.522;7.020;2023-12-04T14:07:38;11.95;;;6.63;;
31638;SDS011;18248;51.522;7.020;2023-12-04T14:10:37;13.43;;;6.78;;
31638;SDS011;18248;51.522;7.020;2023-12-04T14:13:36;11.82;;;6.20;;
31638;SDS011;18248;51.522;7.020;2023-12-04T14:16:35;13.15;;;6.88;;
31638;SDS011;18248;51.522;7.020;2023-12-04T14:19:33;13.55;;;6.45;;
31638;SDS011;18248;51.522;7.020;2023-12-04T14:22:32;9.02;;;5.88;;
31638;SDS011;18248;51.522;7.020;2023-12-04T14:25:30;10.93;;;6.63;;
31638;SDS011;18248;51.522;7.020;2023-12-04T14:28:29;9.20;;;6.22;;
31638;SDS011;18248;51.522;7.020;2023-12-04T14:31:27;13.00;;;7.20;;
31638;SDS011;18248;51.522;7.020;2023-12-04T14:34:26;9.30;;;5.57;;
31638;SDS011;18248;51.522;7.020;2023-12-04T14:37:24;10.85;;;6.35;;
31638;SDS011;18248;51.522;7.020;2023-12-04T14:40:23;11.60;;;6.43;;
31638;SDS011;18248;51.522;7.020;2023-12-04T14:43:22;9.68;;;5.68;;
31638;SDS011;18248;51.522;7.020;2023-12-04T14:46:20;10.00;;;6.20;;
31638;SDS011;18248;51.522;7.020;2023-12-04T14:49:19;12.80;;;6.53;;
31638;SDS011;18248;51.522;7.020;2023-12-04T14:52:17;10.02;;;6.05;;
31638;SDS011;18248;51.522;7.020;2023-12-04T14:55:17;10.45;;;5.20;;
31638;SDS011;18248;51.522;7.020;2023-12-04T14:58:21;10.43;;;6.25;;
31638;SDS011;18248;51.522;7.020;2023-12-04T15:01:38;10.63;;;6.07;;
31638;SDS011;18248;51.522;7.020;2023-12-04T15:04:56;10.32;;;6.43;;
31638;SDS011;18248;51.522;7.020;2023-12-04T15:08:13;9.38;;;5.53;;
31638;SDS011;18248;51.522;7.020;2023-12-04T15:11:14;9.73;;;6.03;;
31638;SDS011;18248;51.522;7.020;2023-12-04T15:14:37;8.17;;;5.07;;
31638;SDS011;18248;51.522;7.020;2023-12-04T15:18:11;9.63;;;5.95;;
31638;SDS011;18248;51.522;7.020;2023-12-04T15:21:35;7.95;;;4.93;;
31638;SDS011;18248;51.522;7.020;2023-12-04T15:24:34;8.75;;;4.88;;
31638;SDS011;18248;51.522;7.020;2023-12-04T15:27:33;6.68;;;4.65;;
31638;SDS011;18248;51.522;7.020;2023-12-04T15:30:32;7.03;;;4.80;;
31638;SDS011;18248;51.522;7.020;2023-12-04T15:33:31;7.55;;;4.50;;
31638;SDS011;18248;51.522;7.020;2023-12-04T15:36:30;7.68;;;4.45;;
31638;SDS011;18248;51.522;7.020;2023-12-04T15:39:28;6.70;;;4.43;;
31638;SDS011;18248;51.522;7.020;2023-12-04T15:42:27;6.35;;;4.10;;
31638;SDS011;18248;51.522;7.020;2023-12-04T15:45:26;7.53;;;4.55;;
31638;SDS011;18248;51.522;7.020;2023-12-04T15:48:25;7.05;;;4.72;;
31638;SDS011;18248;51.522;7.020;2023-12-04T15:51:24;8.07;;;4.70;;
31638;SDS011;18248;51.522;7.020;2023-12-04T15:54:22;8.45;;;5.00;;
31638;SDS011;18248;51.522;7.020;2023-12-04T15:57:22;8.73;;;5.35;;
31638;SDS011;18248;51.522;7.020;2023-12-04T16:00:26;7.85;;;5.25;;
31638;SDS011;18248;51.522;7.020;2023-12-04T16:03:25;7.53;;;4.28;;
31638;SDS011;18248;51.522;7.020;2023-12-04T16:06:23;8.32;;;4.95;;
31638;SDS011;18248;51.522;7.020;2023-12-04T16:09:22;12.07;;;5.93;;
31638;SDS011;18248;51.522;7.020;2023-12-04T16:12:22;8.45;;;5.07;;
31638;SDS011;18248;51.522;7.020;2023-12-04T16:15:20;6.93;;;4.75;;
31638;SDS011;18248;51.522;7.020;2023-12-04T16:18:19;9.10;;;5.22;;
31638;SDS011;18248;51.522;7.020;2023-12-04T16:21:17;6.88;;;4.55;;
31638;SDS011;18248;51.522;7.020;2023-12-04T16:24:16;6.70;;;4.40;;
31638;SDS011;18248;51.522;7.020;2023-12-04T16:27:15;8.02;;;4.95;;
31638;SDS011;18248;51.522;7.020;2023-12-04T16:30:14;11.43;;;5.97;;
31638;SDS011;18248;51.522;7.020;2023-12-04T16:33:13;9.05;;;5.15;;
31638;SDS011;18248;51.522;7.020;2023-12-04T16:36:11;9.90;;;6.53;;
31638;SDS011;18248;51.522;7.020;2023-12-04T16:39:10;10.88;;;5.75;;
31638;SDS011;18248;51.522;7.020;2023-12-04T16:42:09;12.05;;;6.15;;
31638;SDS011;18248;51.522;7.020;2023-12-04T16:45:07;9.95;;;5.35;;
31638;SDS011;18248;51.522;7.020;2023-12-04T16:48:06;11.95;;;6.45;;
31638;SDS011;18248;51.522;7.020;2023-12-04T16:51:05;8.90;;;5.63;;
31638;SDS011;18248;51.522;7.020;2023-12-04T16:54:04;9.95;;;6.32;;
31638;SDS011;18248;51.522;7.020;2023-12-04T16:57:02;11.10;;;6.45;;
31638;SDS011;18248;51.522;7.020;2023-12-04T17:00:02;11.07;;;6.25;;
31638;SDS011;18248;51.522;7.020;2023-12-04T17:03:02;10.07;;;6.30;;
31638;SDS011;18248;51.522;7.020;2023-12-04T17:06:01;9.00;;;6.03;;
31638;SDS011;18248;51.522;7.020;2023-12-04T17:09:00;11.63;;;6.45;;
31638;SDS011;18248;51.522;7.020;2023-12-04T17:11:58;10.20;;;6.05;;
31638;SDS011;18248;51.522;7.020;2023-12-04T17:14:57;8.95;;;5.95;;
31638;SDS011;18248;51.522;7.020;2023-12-04T17:17:56;8.45;;;5.20;;
31638;SDS011;18248;51.522;7.020;2023-12-04T17:20:55;10.10;;;6.18;;
31638;SDS011;18248;51.522;7.020;2023-12-04T17:23:54;7.95;;;5.20;;
31638;SDS011;18248;51.522;7.020;2023-12-04T17:26:52;10.52;;;6.45;;
31638;SDS011;18248;51.522;7.020;2023-12-04T17:29:51;8.85;;;6.45;;
31638;SDS011;18248;51.522;7.020;2023-12-04T17:32:49;10.18;;;6.65;;
31638;SDS011;18248;51.522;7.020;2023-12-04T17:35:48;8.95;;;6.30;;
31638;SDS011;18248;51.522;7.020;2023-12-04T17:38:46;9.43;;;5.93;;
31638;SDS011;18248;51.522;7.020;2023-12-04T17:41:46;9.10;;;5.50;;
31638;SDS011;18248;51.522;7.020;2023-12-04T17:44:45;10.02;;;6.10;;
31638;SDS011;18248;51.522;7.020;2023-12-04T17:47:43;12.52;;;7.20;;
31638;SDS011;18248;51.522;7.020;2023-12-04T17:50:42;10.63;;;6.53;;